createdAt,value
2022-10-12T00:20:02.548Z,68
2022-10-12T00:40:02.741Z,68
2022-10-12T01:00:03.002Z,68
2022-10-12T01:20:02.521Z,69
2022-10-12T01:40:02.738Z,69
2022-10-12T02:00:02.903Z,69
2022-10-12T02:20:03.161Z,69
2022-10-12T03:20:02.749Z,69
2022-10-12T03:40:03.099Z,69
2022-10-12T04:00:02.584Z,69
2022-10-12T04:20:02.872Z,69
2022-10-12T05:20:02.402Z,69
2022-10-12T05:40:02.747Z,69
2022-10-12T06:00:03.081Z,69
2022-10-12T06:20:02.406Z,70
2022-10-12T06:40:02.811Z,70
2022-10-12T07:00:04.438Z,71
2022-10-12T07:20:03.050Z,72
2022-10-12T07:40:02.411Z,73
2022-10-12T08:00:02.980Z,74
2022-10-12T08:20:02.304Z,73
2022-10-12T08:40:03.986Z,70
2022-10-12T09:00:02.309Z,65
2022-10-12T09:20:02.406Z,60
2022-10-12T10:20:02.811Z,48
2022-10-12T12:20:02.460Z,42
2022-10-12T14:20:04.318Z,47
2022-10-12T14:40:02.875Z,47
2022-10-12T15:00:03.488Z,47
2022-10-12T15:20:03.265Z,48
2022-10-12T15:40:02.872Z,48
2022-10-12T16:00:03.459Z,49
2022-10-12T16:20:02.892Z,52
2022-10-12T16:40:02.349Z,54
2022-10-12T17:00:03.554Z,56
2022-10-12T17:40:02.782Z,59
2022-10-12T18:00:03.114Z,61
2022-10-12T18:20:02.482Z,61
2022-10-12T18:40:02.757Z,62
2022-10-12T19:00:03.230Z,63
2022-10-12T19:20:02.895Z,63
2022-10-12T19:40:07.887Z,64
2022-10-12T20:00:02.630Z,65
2022-10-12T20:20:03.324Z,65
2022-10-12T20:40:02.743Z,65
2022-10-12T21:00:02.963Z,66
2022-10-12T21:20:02.471Z,66
2022-10-12T21:40:02.980Z,67
2022-10-12T22:00:02.755Z,67
2022-10-12T22:20:02.422Z,67
2022-10-12T22:40:02.884Z,68
2022-10-12T23:00:03.388Z,68
2022-10-12T23:20:02.859Z,68
2022-10-12T23:40:03.042Z,68
